sensor_id;sensor_type;location;lat;lon;timestamp;P1;durP1;ratioP1;P2;durP2;ratioP2
35847;SDS011;22332;51.954;20.118;2023-03-11T00:01:32;19.40;;;11.40;;
35847;SDS011;22332;51.954;20.118;2023-03-11T00:04:39;21.20;;;12.40;;
35847;SDS011;22332;51.954;20.118;2023-03-11T00:07:45;23.20;;;11.80;;
35847;SDS011;22332;51.954;20.118;2023-03-11T00:10:52;19.80;;;11.20;;
35847;SDS011;22332;51.954;20.118;2023-03-11T00:14:00;20.50;;;11.60;;
35847;SDS011;22332;51.954;20.118;2023-03-11T00:17:06;18.80;;;11.50;;
35847;SDS011;22332;51.954;20.118;2023-03-11T00:20:15;18.30;;;10.70;;
35847;SDS011;22332;51.954;20.118;2023-03-11T00:23:22;23.30;;;10.80;;
35847;SDS011;22332;51.954;20.118;2023-03-11T00:26:29;20.20;;;11.70;;
35847;SDS011;22332;51.954;20.118;2023-03-11T00:29:35;15.30;;;8.50;;
35847;SDS011;22332;51.954;20.118;2023-03-11T00:32:40;15.10;;;8.30;;
35847;SDS011;22332;51.954;20.118;2023-03-11T00:35:46;16.90;;;8.30;;
35847;SDS011;22332;51.954;20.118;2023-03-11T00:38:52;15.50;;;8.80;;
35847;SDS011;22332;51.954;20.118;2023-03-11T00:41:58;15.40;;;8.60;;
35847;SDS011;22332;51.954;20.118;2023-03-11T00:45:04;14.80;;;8.40;;
35847;SDS011;22332;51.954;20.118;2023-03-11T00:48:11;16.20;;;8.10;;
35847;SDS011;22332;51.954;20.118;2023-03-11T00:51:17;14.70;;;7.70;;
35847;SDS011;22332;51.954;20.118;2023-03-11T00:54:23;16.00;;;8.50;;
35847;SDS011;22332;51.954;20.118;2023-03-11T00:57:29;16.60;;;8.30;;
35847;SDS011;22332;51.954;20.118;2023-03-11T01:00:35;15.30;;;7.40;;
35847;SDS011;22332;51.954;20.118;2023-03-11T01:03:41;15.50;;;7.70;;
35847;SDS011;22332;51.954;20.118;2023-03-11T01:06:47;11.60;;;7.00;;
35847;SDS011;22332;51.954;20.118;2023-03-11T01:09:53;13.20;;;7.20;;
35847;SDS011;22332;51.954;20.118;2023-03-11T01:12:58;13.30;;;7.80;;
35847;SDS011;22332;51.954;20.118;2023-03-11T01:16:05;16.10;;;9.20;;
35847;SDS011;22332;51.954;20.118;2023-03-11T01:19:10;18.50;;;9.40;;
35847;SDS011;22332;51.954;20.118;2023-03-11T01:22:16;16.50;;;9.90;;
35847;SDS011;22332;51.954;20.118;2023-03-11T01:25:22;40.80;;;26.80;;
35847;SDS011;22332;51.954;20.118;2023-03-11T01:28:28;30.90;;;19.40;;
35847;SDS011;22332;51.954;20.118;2023-03-11T01:31:34;61.90;;;39.50;;
35847;SDS011;22332;51.954;20.118;2023-03-11T01:34:40;22.20;;;13.60;;
35847;SDS011;22332;51.954;20.118;2023-03-11T01:37:46;17.90;;;10.30;;
35847;SDS011;22332;51.954;20.118;2023-03-11T01:40:52;23.50;;;14.00;;
35847;SDS011;22332;51.954;20.118;2023-03-11T01:43:57;22.30;;;13.20;;
35847;SDS011;22332;51.954;20.118;2023-03-11T01:50:39;27.30;;;15.20;;
35847;SDS011;22332;51.954;20.118;2023-03-11T01:53:46;20.90;;;11.50;;
35847;SDS011;22332;51.954;20.118;2023-03-11T01:56:53;17.10;;;10.80;;
35847;SDS011;22332;51.954;20.118;2023-03-11T01:59:59;13.40;;;8.20;;
35847;SDS011;22332;51.954;20.118;2023-03-11T02:03:16;13.00;;;6.90;;
35847;SDS011;22332;51.954;20.118;2023-03-11T02:06:26;12.30;;;7.20;;
35847;SDS011;22332;51.954;20.118;2023-03-11T02:09:35;11.50;;;6.30;;
35847;SDS011;22332;51.954;20.118;2023-03-11T02:12:41;12.60;;;5.70;;
35847;SDS011;22332;51.954;20.118;2023-03-11T02:15:57;11.20;;;5.70;;
35847;SDS011;22332;51.954;20.118;2023-03-11T02:19:07;10.50;;;5.90;;
35847;SDS011;22332;51.954;20.118;2023-03-11T02:22:20;9.30;;;5.20;;
35847;SDS011;22332;51.954;20.118;2023-03-11T02:25:27;12.70;;;6.30;;
35847;SDS011;22332;51.954;20.118;2023-03-11T02:28:39;9.60;;;5.90;;
35847;SDS011;22332;51.954;20.118;2023-03-11T02:31:47;10.60;;;5.60;;
35847;SDS011;22332;51.954;20.118;2023-03-11T02:34:53;10.20;;;5.80;;
35847;SDS011;22332;51.954;20.118;2023-03-11T02:38:00;9.00;;;4.80;;
35847;SDS011;22332;51.954;20.118;2023-03-11T02:41:07;8.40;;;4.80;;
35847;SDS011;22332;51.954;20.118;2023-03-11T02:44:13;8.40;;;5.20;;
35847;SDS011;22332;51.954;20.118;2023-03-11T02:47:20;9.60;;;5.30;;
35847;SDS011;22332;51.954;20.118;2023-03-11T02:50:26;9.80;;;5.40;;
35847;SDS011;22332;51.954;20.118;2023-03-11T02:53:36;8.90;;;4.90;;
35847;SDS011;22332;51.954;20.118;2023-03-11T02:56:47;7.80;;;4.90;;
35847;SDS011;22332;51.954;20.118;2023-03-11T02:59:53;10.50;;;5.00;;
35847;SDS011;22332;51.954;20.118;2023-03-11T03:02:59;7.90;;;4.80;;
35847;SDS011;22332;51.954;20.118;2023-03-11T03:06:05;8.30;;;4.30;;
35847;SDS011;22332;51.954;20.118;2023-03-11T03:09:12;7.60;;;4.40;;
35847;SDS011;22332;51.954;20.118;2023-03-11T03:12:17;7.60;;;4.50;;
35847;SDS011;22332;51.954;20.118;2023-03-11T03:15:24;9.50;;;4.60;;
35847;SDS011;22332;51.954;20.118;2023-03-11T03:18:30;8.00;;;4.50;;
35847;SDS011;22332;51.954;20.118;2023-03-11T03:21:36;9.60;;;5.10;;
35847;SDS011;22332;51.954;20.118;2023-03-11T03:24:42;7.60;;;4.60;;
35847;SDS011;22332;51.954;20.118;2023-03-11T03:27:48;7.80;;;4.40;;
35847;SDS011;22332;51.954;20.118;2023-03-11T03:30:54;7.00;;;4.50;;
35847;SDS011;22332;51.954;20.118;2023-03-11T03:34:06;7.90;;;4.30;;
35847;SDS011;22332;51.954;20.118;2023-03-11T03:37:13;8.50;;;3.70;;
35847;SDS011;22332;51.954;20.118;2023-03-11T03:40:19;6.70;;;3.70;;
35847;SDS011;22332;51.954;20.118;2023-03-11T03:43:25;8.00;;;4.40;;
35847;SDS011;22332;51.954;20.118;2023-03-11T03:46:31;6.40;;;4.30;;
35847;SDS011;22332;51.954;20.118;2023-03-11T03:49:38;8.90;;;4.60;;
35847;SDS011;22332;51.954;20.118;2023-03-11T03:52:44;8.10;;;4.30;;
35847;SDS011;22332;51.954;20.118;2023-03-11T03:55:50;7.70;;;4.30;;
35847;SDS011;22332;51.954;20.118;2023-03-11T03:58:57;7.20;;;4.70;;
35847;SDS011;22332;51.954;20.118;2023-03-11T04:02:05;9.20;;;4.70;;
35847;SDS011;22332;51.954;20.118;2023-03-11T04:05:11;6.20;;;4.00;;
35847;SDS011;22332;51.954;20.118;2023-03-11T04:08:18;8.20;;;3.90;;
35847;SDS011;22332;51.954;20.118;2023-03-11T04:11:24;7.20;;;4.10;;
35847;SDS011;22332;51.954;20.118;2023-03-11T04:14:30;6.50;;;4.30;;
35847;SDS011;22332;51.954;20.118;2023-03-11T04:17:36;7.30;;;4.70;;
35847;SDS011;22332;51.954;20.118;2023-03-11T04:20:43;6.80;;;4.50;;
35847;SDS011;22332;51.954;20.118;2023-03-11T04:23:50;7.50;;;4.50;;
35847;SDS011;22332;51.954;20.118;2023-03-11T04:26:57;7.70;;;4.60;;
35847;SDS011;22332;51.954;20.118;2023-03-11T04:30:04;7.20;;;4.60;;
35847;SDS011;22332;51.954;20.118;2023-03-11T04:33:11;7.10;;;4.20;;
35847;SDS011;22332;51.954;20.118;2023-03-11T04:36:18;7.80;;;3.90;;
35847;SDS011;22332;51.954;20.118;2023-03-11T04:39:24;5.20;;;3.90;;
35847;SDS011;22332;51.954;20.118;2023-03-11T04:42:30;6.60;;;4.70;;
35847;SDS011;22332;51.954;20.118;2023-03-11T04:45:38;6.30;;;4.10;;
35847;SDS011;22332;51.954;20.118;2023-03-11T04:48:47;6.50;;;4.20;;
35847;SDS011;22332;51.954;20.118;2023-03-11T04:51:53;7.00;;;4.40;;
35847;SDS011;22332;51.954;20.118;2023-03-11T04:54:59;7.10;;;4.70;;
35847;SDS011;22332;51.954;20.118;2023-03-11T04:58:07;8.70;;;5.00;;
35847;SDS011;22332;51.954;20.118;2023-03-11T05:01:14;8.70;;;5.50;;
35847;SDS011;22332;51.954;20.118;2023-03-11T05:04:20;7.30;;;4.70;;
35847;SDS011;22332;51.954;20.118;2023-03-11T05:07:26;7.00;;;4.60;;
35847;SDS011;22332;51.954;20.118;2023-03-11T05:10:32;6.00;;;4.50;;
35847;SDS011;22332;51.954;20.118;2023-03-11T05:13:41;7.40;;;4.80;;
35847;SDS011;22332;51.954;20.118;2023-03-11T05:16:47;9.50;;;5.10;;
35847;SDS011;22332;51.954;20.118;2023-03-11T05:19:53;7.90;;;5.60;;
35847;SDS011;22332;51.954;20.118;2023-03-11T05:23:03;8.20;;;5.60;;
35847;SDS011;22332;51.954;20.118;2023-03-11T05:26:10;8.70;;;5.60;;
35847;SDS011;22332;51.954;20.118;2023-03-11T05:29:18;8.20;;;5.60;;
35847;SDS011;22332;51.954;20.118;2023-03-11T05:32:24;7.10;;;5.00;;
35847;SDS011;22332;51.954;20.118;2023-03-11T05:35:30;8.00;;;5.20;;
35847;SDS011;22332;51.954;20.118;2023-03-11T05:38:36;9.10;;;6.10;;
35847;SDS011;22332;51.954;20.118;2023-03-11T05:41:42;9.70;;;7.10;;
35847;SDS011;22332;51.954;20.118;2023-03-11T05:44:47;67.20;;;27.40;;
35847;SDS011;22332;51.954;20.118;2023-03-11T05:47:54;117.90;;;48.30;;
35847;SDS011;22332;51.954;20.118;2023-03-11T05:51:00;68.50;;;30.00;;
35847;SDS011;22332;51.954;20.118;2023-03-11T05:54:12;81.90;;;34.60;;
35847;SDS011;22332;51.954;20.118;2023-03-11T05:57:18;46.90;;;21.10;;
35847;SDS011;22332;51.954;20.118;2023-03-11T06:00:24;114.20;;;37.20;;
35847;SDS011;22332;51.954;20.118;2023-03-11T06:03:33;193.70;;;62.40;;
35847;SDS011;22332;51.954;20.118;2023-03-11T06:06:40;66.80;;;26.80;;
35847;SDS011;22332;51.954;20.118;2023-03-11T06:09:46;115.60;;;46.30;;
35847;SDS011;22332;51.954;20.118;2023-03-11T06:12:54;124.70;;;57.00;;
35847;SDS011;22332;51.954;20.118;2023-03-11T06:16:07;26.50;;;14.60;;
35847;SDS011;22332;51.954;20.118;2023-03-11T06:19:13;19.20;;;10.90;;
35847;SDS011;22332;51.954;20.118;2023-03-11T06:22:22;12.60;;;9.30;;
35847;SDS011;22332;51.954;20.118;2023-03-11T06:25:28;14.60;;;10.60;;
35847;SDS011;22332;51.954;20.118;2023-03-11T06:28:33;26.20;;;18.30;;
35847;SDS011;22332;51.954;20.118;2023-03-11T06:31:39;53.50;;;35.80;;
35847;SDS011;22332;51.954;20.118;2023-03-11T06:34:50;261.30;;;82.30;;
35847;SDS011;22332;51.954;20.118;2023-03-11T06:37:57;393.40;;;115.20;;
35847;SDS011;22332;51.954;20.118;2023-03-11T06:41:03;438.30;;;132.40;;
35847;SDS011;22332;51.954;20.118;2023-03-11T06:44:11;363.50;;;100.10;;
35847;SDS011;22332;51.954;20.118;2023-03-11T06:47:17;171.30;;;48.80;;
35847;SDS011;22332;51.954;20.118;2023-03-11T06:50:24;309.30;;;83.50;;
35847;SDS011;22332;51.954;20.118;2023-03-11T06:53:31;280.80;;;84.40;;
35847;SDS011;22332;51.954;20.118;2023-03-11T06:56:36;567.10;;;192.30;;
35847;SDS011;22332;51.954;20.118;2023-03-11T06:59:43;262.10;;;81.80;;
35847;SDS011;22332;51.954;20.118;2023-03-11T07:02:51;832.80;;;274.30;;
35847;SDS011;22332;51.954;20.118;2023-03-11T07:05:57;775.90;;;260.70;;
35847;SDS011;22332;51.954;20.118;2023-03-11T07:09:04;920.90;;;361.40;;
35847;SDS011;22332;51.954;20.118;2023-03-11T07:12:11;198.70;;;84.00;;
35847;SDS011;22332;51.954;20.118;2023-03-11T07:15:18;73.10;;;41.60;;
35847;SDS011;22332;51.954;20.118;2023-03-11T07:18:23;43.10;;;25.30;;
35847;SDS011;22332;51.954;20.118;2023-03-11T07:21:29;38.20;;;26.60;;
35847;SDS011;22332;51.954;20.118;2023-03-11T07:24:35;51.50;;;37.10;;
35847;SDS011;22332;51.954;20.118;2023-03-11T07:27:41;20.60;;;17.60;;
35847;SDS011;22332;51.954;20.118;2023-03-11T07:30:47;10.70;;;8.80;;
35847;SDS011;22332;51.954;20.118;2023-03-11T07:33:53;8.20;;;6.70;;
35847;SDS011;22332;51.954;20.118;2023-03-11T07:36:59;9.10;;;7.60;;
35847;SDS011;22332;51.954;20.118;2023-03-11T07:40:07;12.90;;;10.20;;
35847;SDS011;22332;51.954;20.118;2023-03-11T07:43:14;9.20;;;7.90;;
35847;SDS011;22332;51.954;20.118;2023-03-11T07:46:20;19.20;;;16.50;;
35847;SDS011;22332;51.954;20.118;2023-03-11T07:49:27;10.10;;;9.10;;
35847;SDS011;22332;51.954;20.118;2023-03-11T07:52:33;7.00;;;5.80;;
35847;SDS011;22332;51.954;20.118;2023-03-11T07:55:38;218.80;;;78.00;;
35847;SDS011;22332;51.954;20.118;2023-03-11T07:58:44;132.80;;;43.70;;
35847;SDS011;22332;51.954;20.118;2023-03-11T08:01:50;343.00;;;103.10;;
35847;SDS011;22332;51.954;20.118;2023-03-11T08:04:55;159.90;;;49.50;;
35847;SDS011;22332;51.954;20.118;2023-03-11T08:08:01;154.60;;;43.00;;
35847;SDS011;22332;51.954;20.118;2023-03-11T08:11:07;395.50;;;114.10;;
35847;SDS011;22332;51.954;20.118;2023-03-11T08:14:14;118.40;;;34.00;;
35847;SDS011;22332;51.954;20.118;2023-03-11T08:17:20;363.10;;;99.20;;
35847;SDS011;22332;51.954;20.118;2023-03-11T08:20:26;344.90;;;107.60;;
35847;SDS011;22332;51.954;20.118;2023-03-11T08:23:31;466.60;;;190.60;;
35847;SDS011;22332;51.954;20.118;2023-03-11T08:26:37;230.00;;;90.80;;
35847;SDS011;22332;51.954;20.118;2023-03-11T08:29:44;255.20;;;113.00;;
35847;SDS011;22332;51.954;20.118;2023-03-11T08:32:49;86.50;;;39.50;;
35847;SDS011;22332;51.954;20.118;2023-03-11T08:35:55;113.00;;;58.30;;
35847;SDS011;22332;51.954;20.118;2023-03-11T08:39:01;75.50;;;39.70;;
35847;SDS011;22332;51.954;20.118;2023-03-11T08:42:07;53.60;;;31.90;;
35847;SDS011;22332;51.954;20.118;2023-03-11T08:45:13;183.60;;;98.10;;
35847;SDS011;22332;51.954;20.118;2023-03-11T08:48:19;171.20;;;110.10;;
35847;SDS011;22332;51.954;20.118;2023-03-11T08:51:25;49.20;;;30.20;;
35847;SDS011;22332;51.954;20.118;2023-03-11T08:54:32;23.00;;;13.70;;
35847;SDS011;22332;51.954;20.118;2023-03-11T08:57:37;13.00;;;8.00;;
35847;SDS011;22332;51.954;20.118;2023-03-11T09:00:44;13.50;;;8.00;;
35847;SDS011;22332;51.954;20.118;2023-03-11T09:03:50;8.10;;;6.60;;
35847;SDS011;22332;51.954;20.118;2023-03-11T09:06:55;10.50;;;7.20;;
35847;SDS011;22332;51.954;20.118;2023-03-11T09:10:01;18.20;;;11.90;;
35847;SDS011;22332;51.954;20.118;2023-03-11T09:13:09;20.40;;;12.40;;
35847;SDS011;22332;51.954;20.118;2023-03-11T09:16:15;24.20;;;14.10;;
35847;SDS011;22332;51.954;20.118;2023-03-11T09:19:23;20.30;;;12.40;;
35847;SDS011;22332;51.954;20.118;2023-03-11T09:22:29;22.40;;;13.40;;
35847;SDS011;22332;51.954;20.118;2023-03-11T09:25:34;17.20;;;10.70;;
35847;SDS011;22332;51.954;20.118;2023-03-11T09:28:40;12.70;;;8.90;;
35847;SDS011;22332;51.954;20.118;2023-03-11T09:31:50;11.40;;;8.20;;
35847;SDS011;22332;51.954;20.118;2023-03-11T09:34:59;11.60;;;8.20;;
35847;SDS011;22332;51.954;20.118;2023-03-11T09:38:05;28.30;;;18.00;;
35847;SDS011;22332;51.954;20.118;2023-03-11T09:41:17;13.10;;;8.80;;
35847;SDS011;22332;51.954;20.118;2023-03-11T09:44:29;24.30;;;10.90;;
35847;SDS011;22332;51.954;20.118;2023-03-11T09:47:41;12.30;;;7.00;;
35847;SDS011;22332;51.954;20.118;2023-03-11T09:50:52;10.00;;;6.70;;
35847;SDS011;22332;51.954;20.118;2023-03-11T09:54:03;8.10;;;6.00;;
35847;SDS011;22332;51.954;20.118;2023-03-11T09:57:13;5.90;;;4.90;;
35847;SDS011;22332;51.954;20.118;2023-03-11T10:00:22;5.40;;;4.70;;
35847;SDS011;22332;51.954;20.118;2023-03-11T10:03:32;6.70;;;5.50;;
35847;SDS011;22332;51.954;20.118;2023-03-11T10:06:38;7.60;;;5.90;;
35847;SDS011;22332;51.954;20.118;2023-03-11T10:09:49;8.50;;;5.60;;
35847;SDS011;22332;51.954;20.118;2023-03-11T10:13:00;8.60;;;6.10;;
35847;SDS011;22332;51.954;20.118;2023-03-11T10:16:17;9.40;;;6.10;;
35847;SDS011;22332;51.954;20.118;2023-03-11T10:19:31;8.30;;;6.50;;
35847;SDS011;22332;51.954;20.118;2023-03-11T10:22:48;8.30;;;6.20;;
35847;SDS011;22332;51.954;20.118;2023-03-11T10:26:04;7.50;;;5.80;;
35847;SDS011;22332;51.954;20.118;2023-03-11T10:29:17;8.80;;;6.70;;
35847;SDS011;22332;51.954;20.118;2023-03-11T10:32:27;8.40;;;6.30;;
35847;SDS011;22332;51.954;20.118;2023-03-11T10:35:39;7.40;;;5.30;;
35847;SDS011;22332;51.954;20.118;2023-03-11T10:38:47;15.40;;;8.60;;
35847;SDS011;22332;51.954;20.118;2023-03-11T10:41:56;10.70;;;7.30;;
35847;SDS011;22332;51.954;20.118;2023-03-11T10:45:03;11.10;;;6.80;;
35847;SDS011;22332;51.954;20.118;2023-03-11T10:48:18;11.50;;;7.30;;
35847;SDS011;22332;51.954;20.118;2023-03-11T10:51:24;9.60;;;6.90;;
35847;SDS011;22332;51.954;20.118;2023-03-11T10:54:36;10.80;;;7.40;;
35847;SDS011;22332;51.954;20.118;2023-03-11T11:01:02;14.10;;;9.40;;
35847;SDS011;22332;51.954;20.118;2023-03-11T11:04:24;9.90;;;6.70;;
35847;SDS011;22332;51.954;20.118;2023-03-11T11:07:39;12.40;;;8.50;;
35847;SDS011;22332;51.954;20.118;2023-03-11T11:10:49;10.40;;;7.10;;
35847;SDS011;22332;51.954;20.118;2023-03-11T11:13:57;10.30;;;6.70;;
35847;SDS011;22332;51.954;20.118;2023-03-11T11:17:03;10.50;;;6.80;;
35847;SDS011;22332;51.954;20.118;2023-03-11T11:20:14;11.20;;;7.60;;
35847;SDS011;22332;51.954;20.118;2023-03-11T11:23:25;13.20;;;7.80;;
35847;SDS011;22332;51.954;20.118;2023-03-11T11:26:34;10.60;;;7.50;;
35847;SDS011;22332;51.954;20.118;2023-03-11T11:29:40;11.30;;;7.80;;
35847;SDS011;22332;51.954;20.118;2023-03-11T11:32:46;12.40;;;8.20;;
35847;SDS011;22332;51.954;20.118;2023-03-11T11:35:55;11.70;;;7.60;;
35847;SDS011;22332;51.954;20.118;2023-03-11T11:39:05;14.00;;;9.20;;
35847;SDS011;22332;51.954;20.118;2023-03-11T11:42:21;14.90;;;9.00;;
35847;SDS011;22332;51.954;20.118;2023-03-11T11:45:33;12.10;;;8.50;;
35847;SDS011;22332;51.954;20.118;2023-03-11T11:48:44;13.60;;;8.20;;
35847;SDS011;22332;51.954;20.118;2023-03-11T11:51:55;21.90;;;12.90;;
35847;SDS011;22332;51.954;20.118;2023-03-11T11:58:10;20.50;;;12.20;;
35847;SDS011;22332;51.954;20.118;2023-03-11T12:01:18;19.60;;;11.80;;
35847;SDS011;22332;51.954;20.118;2023-03-11T12:04:39;24.00;;;10.60;;
35847;SDS011;22332;51.954;20.118;2023-03-11T12:08:04;16.50;;;9.20;;
35847;SDS011;22332;51.954;20.118;2023-03-11T12:11:17;23.30;;;10.70;;
35847;SDS011;22332;51.954;20.118;2023-03-11T12:14:27;15.70;;;9.30;;
35847;SDS011;22332;51.954;20.118;2023-03-11T12:17:39;11.50;;;7.40;;
35847;SDS011;22332;51.954;20.118;2023-03-11T12:20:49;14.80;;;8.70;;
35847;SDS011;22332;51.954;20.118;2023-03-11T12:24:00;12.40;;;8.70;;
35847;SDS011;22332;51.954;20.118;2023-03-11T12:27:19;13.00;;;9.10;;
35847;SDS011;22332;51.954;20.118;2023-03-11T12:30:29;12.30;;;7.40;;
35847;SDS011;22332;51.954;20.118;2023-03-11T12:33:40;12.00;;;8.30;;
35847;SDS011;22332;51.954;20.118;2023-03-11T12:36:47;12.90;;;7.70;;
35847;SDS011;22332;51.954;20.118;2023-03-11T12:39:55;13.40;;;8.00;;
35847;SDS011;22332;51.954;20.118;2023-03-11T12:43:01;10.50;;;7.10;;
35847;SDS011;22332;51.954;20.118;2023-03-11T12:46:07;13.50;;;7.70;;
35847;SDS011;22332;51.954;20.118;2023-03-11T12:49:14;13.90;;;8.80;;
35847;SDS011;22332;51.954;20.118;2023-03-11T12:52:30;13.10;;;8.40;;
35847;SDS011;22332;51.954;20.118;2023-03-11T12:55:57;31.70;;;15.50;;
35847;SDS011;22332;51.954;20.118;2023-03-11T12:59:18;20.10;;;11.60;;
35847;SDS011;22332;51.954;20.118;2023-03-11T13:02:49;12.50;;;8.40;;
35847;SDS011;22332;51.954;20.118;2023-03-11T13:06:14;12.00;;;7.60;;
35847;SDS011;22332;51.954;20.118;2023-03-11T13:09:44;12.30;;;8.40;;
35847;SDS011;22332;51.954;20.118;2023-03-11T13:13:02;15.20;;;10.00;;
35847;SDS011;22332;51.954;20.118;2023-03-11T13:16:36;14.90;;;9.30;;
35847;SDS011;22332;51.954;20.118;2023-03-11T13:19:53;19.20;;;10.20;;
35847;SDS011;22332;51.954;20.118;2023-03-11T13:23:14;15.40;;;9.20;;
35847;SDS011;22332;51.954;20.118;2023-03-11T13:26:30;19.40;;;10.60;;
35847;SDS011;22332;51.954;20.118;2023-03-11T13:29:48;16.40;;;9.50;;
35847;SDS011;22332;51.954;20.118;2023-03-11T13:33:16;15.20;;;9.70;;
35847;SDS011;22332;51.954;20.118;2023-03-11T13:40:00;17.40;;;10.10;;
35847;SDS011;22332;51.954;20.118;2023-03-11T13:43:16;30.20;;;12.90;;
35847;SDS011;22332;51.954;20.118;2023-03-11T13:46:25;15.80;;;8.70;;
35847;SDS011;22332;51.954;20.118;2023-03-11T13:49:36;12.10;;;7.50;;
35847;SDS011;22332;51.954;20.118;2023-03-11T13:55:55;31.10;;;14.80;;
35847;SDS011;22332;51.954;20.118;2023-03-11T14:02:35;14.30;;;8.10;;
35847;SDS011;22332;51.954;20.118;2023-03-11T14:05:42;13.80;;;8.60;;
35847;SDS011;22332;51.954;20.118;2023-03-11T14:08:54;10.60;;;6.80;;
35847;SDS011;22332;51.954;20.118;2023-03-11T14:12:04;10.20;;;6.50;;
35847;SDS011;22332;51.954;20.118;2023-03-11T14:15:12;11.70;;;7.10;;
35847;SDS011;22332;51.954;20.118;2023-03-11T14:18:27;11.60;;;6.70;;
35847;SDS011;22332;51.954;20.118;2023-03-11T14:21:35;12.60;;;6.60;;
35847;SDS011;22332;51.954;20.118;2023-03-11T14:24:45;10.20;;;6.30;;
35847;SDS011;22332;51.954;20.118;2023-03-11T14:27:53;9.60;;;5.20;;
35847;SDS011;22332;51.954;20.118;2023-03-11T14:31:01;28.60;;;11.30;;
35847;SDS011;22332;51.954;20.118;2023-03-11T14:34:13;10.20;;;5.80;;
35847;SDS011;22332;51.954;20.118;2023-03-11T14:37:29;11.40;;;5.60;;
35847;SDS011;22332;51.954;20.118;2023-03-11T14:40:36;11.50;;;6.90;;
35847;SDS011;22332;51.954;20.118;2023-03-11T14:43:44;12.30;;;7.90;;
35847;SDS011;22332;51.954;20.118;2023-03-11T14:46:56;11.30;;;6.70;;
35847;SDS011;22332;51.954;20.118;2023-03-11T14:50:09;8.80;;;5.20;;
35847;SDS011;22332;51.954;20.118;2023-03-11T14:53:18;9.70;;;6.10;;
35847;SDS011;22332;51.954;20.118;2023-03-11T14:56:27;11.00;;;5.70;;
35847;SDS011;22332;51.954;20.118;2023-03-11T14:59:35;11.50;;;6.80;;
35847;SDS011;22332;51.954;20.118;2023-03-11T15:02:43;18.30;;;9.70;;
35847;SDS011;22332;51.954;20.118;2023-03-11T15:05:59;17.00;;;9.70;;
35847;SDS011;22332;51.954;20.118;2023-03-11T15:09:07;16.10;;;8.10;;
35847;SDS011;22332;51.954;20.118;2023-03-11T15:15:36;15.80;;;9.50;;
35847;SDS011;22332;51.954;20.118;2023-03-11T15:18:42;22.20;;;10.20;;
35847;SDS011;22332;51.954;20.118;2023-03-11T15:21:48;16.30;;;8.60;;
35847;SDS011;22332;51.954;20.118;2023-03-11T15:24:56;102.20;;;26.90;;
35847;SDS011;22332;51.954;20.118;2023-03-11T15:28:21;10.00;;;5.90;;
35847;SDS011;22332;51.954;20.118;2023-03-11T15:31:35;18.50;;;12.80;;
35847;SDS011;22332;51.954;20.118;2023-03-11T15:34:42;36.60;;;15.10;;
35847;SDS011;22332;51.954;20.118;2023-03-11T15:37:48;18.20;;;11.30;;
35847;SDS011;22332;51.954;20.118;2023-03-11T15:41:00;26.50;;;16.00;;
35847;SDS011;22332;51.954;20.118;2023-03-11T15:44:14;15.50;;;7.80;;
35847;SDS011;22332;51.954;20.118;2023-03-11T15:47:27;10.20;;;6.90;;
35847;SDS011;22332;51.954;20.118;2023-03-11T15:50:33;81.20;;;21.10;;
35847;SDS011;22332;51.954;20.118;2023-03-11T15:53:39;10.90;;;6.80;;
35847;SDS011;22332;51.954;20.118;2023-03-11T15:56:44;9.50;;;5.40;;
35847;SDS011;22332;51.954;20.118;2023-03-11T15:59:50;11.50;;;6.80;;
35847;SDS011;22332;51.954;20.118;2023-03-11T16:02:58;64.20;;;15.40;;
35847;SDS011;22332;51.954;20.118;2023-03-11T16:06:04;10.90;;;5.30;;
35847;SDS011;22332;51.954;20.118;2023-03-11T16:09:11;14.70;;;7.20;;
35847;SDS011;22332;51.954;20.118;2023-03-11T16:12:18;13.40;;;6.00;;
35847;SDS011;22332;51.954;20.118;2023-03-11T16:15:27;150.60;;;39.30;;
35847;SDS011;22332;51.954;20.118;2023-03-11T16:18:35;13.50;;;6.80;;
35847;SDS011;22332;51.954;20.118;2023-03-11T16:21:42;9.60;;;6.00;;
35847;SDS011;22332;51.954;20.118;2023-03-11T16:24:51;9.40;;;5.60;;
35847;SDS011;22332;51.954;20.118;2023-03-11T16:27:58;18.20;;;8.80;;
35847;SDS011;22332;51.954;20.118;2023-03-11T16:31:04;9.60;;;7.00;;
35847;SDS011;22332;51.954;20.118;2023-03-11T16:34:11;21.40;;;10.20;;
35847;SDS011;22332;51.954;20.118;2023-03-11T16:37:16;39.10;;;18.10;;
35847;SDS011;22332;51.954;20.118;2023-03-11T16:40:24;13.10;;;7.10;;
35847;SDS011;22332;51.954;20.118;2023-03-11T16:43:31;9.90;;;6.10;;
35847;SDS011;22332;51.954;20.118;2023-03-11T16:46:36;21.10;;;12.50;;
35847;SDS011;22332;51.954;20.118;2023-03-11T16:49:42;28.60;;;14.80;;
35847;SDS011;22332;51.954;20.118;2023-03-11T16:52:48;62.50;;;34.60;;
35847;SDS011;22332;51.954;20.118;2023-03-11T16:55:53;21.50;;;11.90;;
35847;SDS011;22332;51.954;20.118;2023-03-11T16:58:59;13.20;;;7.70;;
35847;SDS011;22332;51.954;20.118;2023-03-11T17:02:07;14.50;;;8.00;;
35847;SDS011;22332;51.954;20.118;2023-03-11T17:05:14;14.90;;;7.20;;
35847;SDS011;22332;51.954;20.118;2023-03-11T17:08:20;369.60;;;107.30;;
35847;SDS011;22332;51.954;20.118;2023-03-11T17:11:26;30.80;;;12.10;;
35847;SDS011;22332;51.954;20.118;2023-03-11T17:14:32;21.00;;;8.90;;
35847;SDS011;22332;51.954;20.118;2023-03-11T17:17:38;47.40;;;13.20;;
35847;SDS011;22332;51.954;20.118;2023-03-11T17:20:44;21.60;;;7.60;;
35847;SDS011;22332;51.954;20.118;2023-03-11T17:23:49;14.90;;;6.80;;
35847;SDS011;22332;51.954;20.118;2023-03-11T17:26:56;12.00;;;4.90;;
35847;SDS011;22332;51.954;20.118;2023-03-11T17:30:03;9.30;;;4.20;;
35847;SDS011;22332;51.954;20.118;2023-03-11T17:33:10;42.80;;;13.20;;
35847;SDS011;22332;51.954;20.118;2023-03-11T17:36:16;14.60;;;5.50;;
35847;SDS011;22332;51.954;20.118;2023-03-11T17:39:22;13.30;;;5.00;;
35847;SDS011;22332;51.954;20.118;2023-03-11T17:42:28;8.20;;;4.00;;
35847;SDS011;22332;51.954;20.118;2023-03-11T17:45:34;7.30;;;3.80;;
35847;SDS011;22332;51.954;20.118;2023-03-11T17:48:43;8.20;;;4.30;;
35847;SDS011;22332;51.954;20.118;2023-03-11T17:51:50;9.20;;;3.80;;
35847;SDS011;22332;51.954;20.118;2023-03-11T17:54:55;29.20;;;12.60;;
35847;SDS011;22332;51.954;20.118;2023-03-11T17:58:01;20.80;;;11.50;;
35847;SDS011;22332;51.954;20.118;2023-03-11T18:01:07;10.00;;;5.80;;
35847;SDS011;22332;51.954;20.118;2023-03-11T18:04:16;8.40;;;3.80;;
35847;SDS011;22332;51.954;20.118;2023-03-11T18:07:22;12.50;;;5.10;;
35847;SDS011;22332;51.954;20.118;2023-03-11T18:10:28;6.30;;;3.20;;
35847;SDS011;22332;51.954;20.118;2023-03-11T18:13:34;11.20;;;5.40;;
35847;SDS011;22332;51.954;20.118;2023-03-11T18:16:40;10.80;;;3.90;;
35847;SDS011;22332;51.954;20.118;2023-03-11T18:19:46;7.60;;;3.50;;
35847;SDS011;22332;51.954;20.118;2023-03-11T18:22:51;7.00;;;3.10;;
35847;SDS011;22332;51.954;20.118;2023-03-11T18:25:57;8.00;;;4.00;;
35847;SDS011;22332;51.954;20.118;2023-03-11T18:29:04;6.90;;;4.00;;
35847;SDS011;22332;51.954;20.118;2023-03-11T18:32:09;10.00;;;5.20;;
35847;SDS011;22332;51.954;20.118;2023-03-11T18:35:15;9.80;;;5.20;;
35847;SDS011;22332;51.954;20.118;2023-03-11T18:38:21;10.10;;;4.00;;
35847;SDS011;22332;51.954;20.118;2023-03-11T18:41:30;7.70;;;3.60;;